sensor_id;sensor_type;location;lat;lon;timestamp;temperature;humidity
46335;DHT22;32051;48.882;9.210;2023-08-20T11:45:16;34.80;97.30
46335;DHT22;32051;48.882;9.210;2023-08-20T11:47:42;39.30;90.30
46335;DHT22;32051;48.882;9.210;2023-08-20T11:50:09;39.20;88.00
46335;DHT22;32051;48.882;9.210;2023-08-20T11:55:02;39.30;87.50
46335;DHT22;32051;48.882;9.210;2023-08-20T11:57:29;39.50;87.50
46335;DHT22;32051;48.882;9.210;2023-08-20T13:35:21;39.60;88.80
46335;DHT22;32051;48.882;9.210;2023-08-20T13:37:48;42.30;74.50
46335;DHT22;32051;48.882;9.210;2023-08-20T13:40:13;42.40;74.00
46335;DHT22;32051;48.882;9.210;2023-08-20T13:42:39;42.60;72.80
46335;DHT22;32051;48.882;9.210;2023-08-20T13:45:05;42.80;72.30
46335;DHT22;32051;48.882;9.210;2023-08-20T13:47:31;42.90;71.30
46335;DHT22;32051;48.882;9.210;2023-08-20T13:49:57;43.20;72.30
46335;DHT22;32051;48.882;9.210;2023-08-20T13:52:23;43.30;70.20
46335;DHT22;32051;48.882;9.210;2023-08-20T13:54:48;43.50;69.60
46335;DHT22;32051;48.882;9.210;2023-08-20T13:57:14;43.60;69.00
46335;DHT22;32051;48.882;9.210;2023-08-20T13:59:40;43.80;68.00
46335;DHT22;32051;48.882;9.210;2023-08-20T14:02:05;43.80;67.10
46335;DHT22;32051;48.882;9.210;2023-08-20T14:04:31;43.70;69.20
46335;DHT22;32051;48.882;9.210;2023-08-20T14:06:57;43.70;69.90
46335;DHT22;32051;48.882;9.210;2023-08-20T14:09:22;43.70;70.30
46335;DHT22;32051;48.882;9.210;2023-08-20T14:11:48;43.50;70.10
46335;DHT22;32051;48.882;9.210;2023-08-20T14:14:14;43.10;69.30
46335;DHT22;32051;48.882;9.210;2023-08-20T14:16:40;43.10;69.40
46335;DHT22;32051;48.882;9.210;2023-08-20T14:19:06;43.20;69.70
46335;DHT22;32051;48.882;9.210;2023-08-20T14:21:31;43.30;69.90
46335;DHT22;32051;48.882;9.210;2023-08-20T14:23:57;43.10;70.00
46335;DHT22;32051;48.882;9.210;2023-08-20T14:26:23;43.00;69.90
46335;DHT22;32051;48.882;9.210;2023-08-20T14:28:49;42.90;68.90
46335;DHT22;32051;48.882;9.210;2023-08-20T14:31:15;42.90;68.50
46335;DHT22;32051;48.882;9.210;2023-08-20T14:33:40;42.60;67.90
46335;DHT22;32051;48.882;9.210;2023-08-20T14:36:06;42.30;68.10
46335;DHT22;32051;48.882;9.210;2023-08-20T14:41:02;41.80;69.40
46335;DHT22;32051;48.882;9.210;2023-08-20T14:53:13;40.20;70.00
46335;DHT22;32051;48.882;9.210;2023-08-20T15:03:01;37.00;76.10
46335;DHT22;32051;48.882;9.210;2023-08-20T15:20:04;35.20;77.00
46335;DHT22;32051;48.882;9.210;2023-08-20T15:34:43;33.90;81.00
46335;DHT22;32051;48.882;9.210;2023-08-20T15:37:09;33.40;84.40
46335;DHT22;32051;48.882;9.210;2023-08-20T15:44:27;33.20;83.90
46335;DHT22;32051;48.882;9.210;2023-08-20T15:46:53;32.90;84.10
46335;DHT22;32051;48.882;9.210;2023-08-20T15:49:19;32.80;83.80
46335;DHT22;32051;48.882;9.210;2023-08-20T15:51:45;32.80;85.10
46335;DHT22;32051;48.882;9.210;2023-08-20T15:54:12;32.80;85.60
46335;DHT22;32051;48.882;9.210;2023-08-20T15:56:38;32.80;86.40
46335;DHT22;32051;48.882;9.210;2023-08-20T15:59:04;32.80;85.70
46335;DHT22;32051;48.882;9.210;2023-08-20T16:01:30;32.80;86.90
46335;DHT22;32051;48.882;9.210;2023-08-20T16:03:55;32.80;85.70
46335;DHT22;32051;48.882;9.210;2023-08-20T16:06:21;32.80;86.30
46335;DHT22;32051;48.882;9.210;2023-08-20T16:08:47;32.80;85.30
46335;DHT22;32051;48.882;9.210;2023-08-20T16:11:13;32.70;86.10
46335;DHT22;32051;48.882;9.210;2023-08-20T16:13:39;32.60;85.80
46335;DHT22;32051;48.882;9.210;2023-08-20T16:16:04;32.50;86.10
46335;DHT22;32051;48.882;9.210;2023-08-20T16:18:30;32.40;86.50
46335;DHT22;32051;48.882;9.210;2023-08-20T16:20:56;32.30;87.00
46335;DHT22;32051;48.882;9.210;2023-08-20T16:23:21;32.20;88.00
46335;DHT22;32051;48.882;9.210;2023-08-20T16:25:47;32.10;88.20
46335;DHT22;32051;48.882;9.210;2023-08-20T16:28:13;32.10;88.40
46335;DHT22;32051;48.882;9.210;2023-08-20T16:30:40;32.00;88.30
46335;DHT22;32051;48.882;9.210;2023-08-20T16:33:09;32.00;88.70
46335;DHT22;32051;48.882;9.210;2023-08-20T16:35:38;32.00;89.60
46335;DHT22;32051;48.882;9.210;2023-08-20T16:38:04;31.90;89.50
46335;DHT22;32051;48.882;9.210;2023-08-20T16:40:30;31.90;90.00
46335;DHT22;32051;48.882;9.210;2023-08-20T16:42:58;31.90;89.10
46335;DHT22;32051;48.882;9.210;2023-08-20T16:45:24;31.80;89.20
46335;DHT22;32051;48.882;9.210;2023-08-20T16:47:49;31.70;89.20
46335;DHT22;32051;48.882;9.210;2023-08-20T16:50:15;31.70;90.10
46335;DHT22;32051;48.882;9.210;2023-08-20T16:52:41;31.60;90.20
46335;DHT22;32051;48.882;9.210;2023-08-20T16:55:07;31.60;90.60
46335;DHT22;32051;48.882;9.210;2023-08-20T16:57:33;31.50;90.80
46335;DHT22;32051;48.882;9.210;2023-08-20T16:59:59;31.30;90.90
46335;DHT22;32051;48.882;9.210;2023-08-20T17:02:24;31.30;91.70
46335;DHT22;32051;48.882;9.210;2023-08-20T17:04:50;31.20;91.20
46335;DHT22;32051;48.882;9.210;2023-08-20T17:07:16;31.10;91.80
46335;DHT22;32051;48.882;9.210;2023-08-20T17:09:42;31.10;91.40
46335;DHT22;32051;48.882;9.210;2023-08-20T17:12:08;31.00;91.70
46335;DHT22;32051;48.882;9.210;2023-08-20T17:14:33;31.00;91.60
46335;DHT22;32051;48.882;9.210;2023-08-20T17:16:59;31.00;92.00
46335;DHT22;32051;48.882;9.210;2023-08-20T17:19:25;31.00;92.90
46335;DHT22;32051;48.882;9.210;2023-08-20T17:21:51;30.90;92.90
46335;DHT22;32051;48.882;9.210;2023-08-20T17:24:17;30.90;92.90
46335;DHT22;32051;48.882;9.210;2023-08-20T17:26:43;30.90;93.20
46335;DHT22;32051;48.882;9.210;2023-08-20T17:29:09;30.90;93.50
46335;DHT22;32051;48.882;9.210;2023-08-20T17:31:35;30.90;94.00
46335;DHT22;32051;48.882;9.210;2023-08-20T17:34:02;30.80;94.10
46335;DHT22;32051;48.882;9.210;2023-08-20T17:36:31;30.80;94.20
46335;DHT22;32051;48.882;9.210;2023-08-20T17:38:57;30.70;94.10
46335;DHT22;32051;48.882;9.210;2023-08-20T17:41:23;30.70;94.20
46335;DHT22;32051;48.882;9.210;2023-08-20T17:43:49;30.70;94.40
46335;DHT22;32051;48.882;9.210;2023-08-20T17:46:15;30.60;94.70
46335;DHT22;32051;48.882;9.210;2023-08-20T17:48:40;30.60;95.00
46335;DHT22;32051;48.882;9.210;2023-08-20T17:51:06;30.50;95.20
46335;DHT22;32051;48.882;9.210;2023-08-20T17:53:32;30.50;95.40
46335;DHT22;32051;48.882;9.210;2023-08-20T17:55:58;30.40;95.50
46335;DHT22;32051;48.882;9.210;2023-08-20T17:58:23;30.40;95.80
46335;DHT22;32051;48.882;9.210;2023-08-20T18:00:49;30.40;96.10
46335;DHT22;32051;48.882;9.210;2023-08-20T18:03:15;30.30;96.30
46335;DHT22;32051;48.882;9.210;2023-08-20T18:05:42;30.20;96.60
46335;DHT22;32051;48.882;9.210;2023-08-20T18:08:08;30.10;96.90
46335;DHT22;32051;48.882;9.210;2023-08-20T18:10:34;30.10;96.60
46335;DHT22;32051;48.882;9.210;2023-08-20T18:13:00;30.00;96.80
46335;DHT22;32051;48.882;9.210;2023-08-20T18:15:27;30.00;96.80
46335;DHT22;32051;48.882;9.210;2023-08-20T18:17:53;30.00;96.90
46335;DHT22;32051;48.882;9.210;2023-08-20T18:20:20;29.90;97.10
46335;DHT22;32051;48.882;9.210;2023-08-20T18:22:46;29.80;97.20
46335;DHT22;32051;48.882;9.210;2023-08-20T18:25:12;29.70;97.30
46335;DHT22;32051;48.882;9.210;2023-08-20T18:27:38;29.70;98.00
46335;DHT22;32051;48.882;9.210;2023-08-20T18:30:06;29.60;98.00
46335;DHT22;32051;48.882;9.210;2023-08-20T18:32:33;29.50;98.30
46335;DHT22;32051;48.882;9.210;2023-08-20T18:34:59;29.50;98.40
46335;DHT22;32051;48.882;9.210;2023-08-20T18:37:25;29.40;99.00
46335;DHT22;32051;48.882;9.210;2023-08-20T18:39:51;29.30;98.80
46335;DHT22;32051;48.882;9.210;2023-08-20T18:42:17;29.30;99.20
46335;DHT22;32051;48.882;9.210;2023-08-20T18:44:42;29.20;99.50
46335;DHT22;32051;48.882;9.210;2023-08-20T18:47:08;29.10;99.90
46335;DHT22;32051;48.882;9.210;2023-08-20T18:49:34;29.10;99.90
46335;DHT22;32051;48.882;9.210;2023-08-20T18:52:02;29.00;99.90
46335;DHT22;32051;48.882;9.210;2023-08-20T18:54:28;29.00;99.90
46335;DHT22;32051;48.882;9.210;2023-08-20T18:56:54;28.90;99.90
46335;DHT22;32051;48.882;9.210;2023-08-20T18:59:19;28.80;99.90
46335;DHT22;32051;48.882;9.210;2023-08-20T19:01:45;28.80;99.90
46335;DHT22;32051;48.882;9.210;2023-08-20T19:04:11;28.70;99.90
46335;DHT22;32051;48.882;9.210;2023-08-20T19:06:37;28.60;99.90
46335;DHT22;32051;48.882;9.210;2023-08-20T19:09:02;28.60;99.90
46335;DHT22;32051;48.882;9.210;2023-08-20T19:11:31;28.60;99.90
46335;DHT22;32051;48.882;9.210;2023-08-20T19:13:56;28.60;99.90
46335;DHT22;32051;48.882;9.210;2023-08-20T19:16:22;28.50;99.90
46335;DHT22;32051;48.882;9.210;2023-08-20T19:18:48;28.40;99.90
46335;DHT22;32051;48.882;9.210;2023-08-20T19:21:16;28.40;99.90
46335;DHT22;32051;48.882;9.210;2023-08-20T19:23:42;28.30;99.90
46335;DHT22;32051;48.882;9.210;2023-08-20T19:26:10;28.30;99.90
46335;DHT22;32051;48.882;9.210;2023-08-20T19:28:36;28.30;99.90
46335;DHT22;32051;48.882;9.210;2023-08-20T19:31:02;28.30;99.90
46335;DHT22;32051;48.882;9.210;2023-08-20T19:33:28;28.20;99.90
46335;DHT22;32051;48.882;9.210;2023-08-20T19:35:59;28.20;99.90
46335;DHT22;32051;48.882;9.210;2023-08-20T19:38:25;28.10;99.90
46335;DHT22;32051;48.882;9.210;2023-08-20T19:40:50;28.10;99.90
46335;DHT22;32051;48.882;9.210;2023-08-20T19:43:18;28.00;99.90
46335;DHT22;32051;48.882;9.210;2023-08-20T19:45:45;28.00;99.90
46335;DHT22;32051;48.882;9.210;2023-08-20T19:48:11;28.00;99.90
46335;DHT22;32051;48.882;9.210;2023-08-20T19:50:38;27.90;99.90
46335;DHT22;32051;48.882;9.210;2023-08-20T19:53:05;27.90;99.90
46335;DHT22;32051;48.882;9.210;2023-08-20T19:55:30;27.90;99.90
46335;DHT22;32051;48.882;9.210;2023-08-20T19:57:56;27.80;99.90
46335;DHT22;32051;48.882;9.210;2023-08-20T20:00:23;27.80;99.90
46335;DHT22;32051;48.882;9.210;2023-08-20T20:02:48;27.80;99.90
46335;DHT22;32051;48.882;9.210;2023-08-20T20:05:18;27.70;99.90
46335;DHT22;32051;48.882;9.210;2023-08-20T20:07:45;27.70;99.90
46335;DHT22;32051;48.882;9.210;2023-08-20T20:10:11;27.70;99.90
46335;DHT22;32051;48.882;9.210;2023-08-20T20:12:37;27.70;99.90
46335;DHT22;32051;48.882;9.210;2023-08-20T20:15:05;27.60;99.90
46335;DHT22;32051;48.882;9.210;2023-08-20T20:17:32;27.60;99.90
46335;DHT22;32051;48.882;9.210;2023-08-20T20:19:59;27.60;99.90
46335;DHT22;32051;48.882;9.210;2023-08-20T20:22:24;27.50;99.90
46335;DHT22;32051;48.882;9.210;2023-08-20T20:24:55;27.50;99.90
46335;DHT22;32051;48.882;9.210;2023-08-20T20:27:23;27.40;99.90
46335;DHT22;32051;48.882;9.210;2023-08-20T20:29:49;27.40;99.90
46335;DHT22;32051;48.882;9.210;2023-08-20T20:32:15;27.40;99.90
46335;DHT22;32051;48.882;9.210;2023-08-20T20:34:41;27.40;99.90
46335;DHT22;32051;48.882;9.210;2023-08-20T20:37:07;27.30;99.90
46335;DHT22;32051;48.882;9.210;2023-08-20T20:39:33;27.30;99.90
46335;DHT22;32051;48.882;9.210;2023-08-20T20:41:59;27.20;99.90
46335;DHT22;32051;48.882;9.210;2023-08-20T20:44:25;27.20;99.90
46335;DHT22;32051;48.882;9.210;2023-08-20T20:46:51;27.10;99.90
46335;DHT22;32051;48.882;9.210;2023-08-20T20:49:16;27.10;99.90
46335;DHT22;32051;48.882;9.210;2023-08-20T20:51:42;27.10;99.90
46335;DHT22;32051;48.882;9.210;2023-08-20T20:54:07;27.10;99.90
46335;DHT22;32051;48.882;9.210;2023-08-20T20:56:33;27.00;99.90
46335;DHT22;32051;48.882;9.210;2023-08-20T20:58:59;27.00;99.90
46335;DHT22;32051;48.882;9.210;2023-08-20T21:01:25;27.00;99.90
46335;DHT22;32051;48.882;9.210;2023-08-20T21:03:51;26.90;99.90
46335;DHT22;32051;48.882;9.210;2023-08-20T21:06:17;26.90;99.90
46335;DHT22;32051;48.882;9.210;2023-08-20T21:08:43;26.90;99.90
46335;DHT22;32051;48.882;9.210;2023-08-20T21:11:08;26.90;99.90
46335;DHT22;32051;48.882;9.210;2023-08-20T21:13:34;26.90;99.90
46335;DHT22;32051;48.882;9.210;2023-08-20T21:15:59;26.80;99.90
46335;DHT22;32051;48.882;9.210;2023-08-20T21:18:25;26.80;99.90
46335;DHT22;32051;48.882;9.210;2023-08-20T21:20:51;26.80;99.90
46335;DHT22;32051;48.882;9.210;2023-08-20T21:23:17;26.80;99.90
46335;DHT22;32051;48.882;9.210;2023-08-20T21:25:42;26.80;99.90
46335;DHT22;32051;48.882;9.210;2023-08-20T21:28:08;26.70;99.90
46335;DHT22;32051;48.882;9.210;2023-08-20T21:30:34;26.70;99.90
46335;DHT22;32051;48.882;9.210;2023-08-20T21:33:00;26.70;99.90
46335;DHT22;32051;48.882;9.210;2023-08-20T21:35:26;26.70;99.90
46335;DHT22;32051;48.882;9.210;2023-08-20T21:37:51;26.70;99.90
46335;DHT22;32051;48.882;9.210;2023-08-20T21:40:17;26.70;99.90
46335;DHT22;32051;48.882;9.210;2023-08-20T21:42:43;26.60;99.90
46335;DHT22;32051;48.882;9.210;2023-08-20T21:45:08;26.60;99.90
46335;DHT22;32051;48.882;9.210;2023-08-20T21:47:38;26.60;99.90
46335;DHT22;32051;48.882;9.210;2023-08-20T21:50:04;26.60;99.90
46335;DHT22;32051;48.882;9.210;2023-08-20T21:52:30;26.60;99.90
46335;DHT22;32051;48.882;9.210;2023-08-20T21:54:56;26.50;99.90
46335;DHT22;32051;48.882;9.210;2023-08-20T21:57:21;26.50;99.90
46335;DHT22;32051;48.882;9.210;2023-08-20T21:59:49;26.50;99.90
46335;DHT22;32051;48.882;9.210;2023-08-20T22:02:15;26.50;99.90
46335;DHT22;32051;48.882;9.210;2023-08-20T22:04:41;26.50;99.90
46335;DHT22;32051;48.882;9.210;2023-08-20T22:07:08;26.50;99.90
46335;DHT22;32051;48.882;9.210;2023-08-20T22:09:34;26.50;99.90
46335;DHT22;32051;48.882;9.210;2023-08-20T22:12:00;26.40;99.90
46335;DHT22;32051;48.882;9.210;2023-08-20T22:14:26;26.40;99.90
46335;DHT22;32051;48.882;9.210;2023-08-20T22:16:52;26.40;99.90
46335;DHT22;32051;48.882;9.210;2023-08-20T22:19:18;26.30;99.90
46335;DHT22;32051;48.882;9.210;2023-08-20T22:21:46;26.30;99.90
46335;DHT22;32051;48.882;9.210;2023-08-20T22:24:13;26.30;99.90
46335;DHT22;32051;48.882;9.210;2023-08-20T22:26:47;26.20;99.90
46335;DHT22;32051;48.882;9.210;2023-08-20T22:29:16;26.20;99.90
46335;DHT22;32051;48.882;9.210;2023-08-20T22:31:46;26.20;99.90
46335;DHT22;32051;48.882;9.210;2023-08-20T22:34:11;26.20;99.90
46335;DHT22;32051;48.882;9.210;2023-08-20T22:36:37;26.20;99.90
46335;DHT22;32051;48.882;9.210;2023-08-20T22:39:03;26.20;99.90
46335;DHT22;32051;48.882;9.210;2023-08-20T22:41:30;26.20;99.90
46335;DHT22;32051;48.882;9.210;2023-08-20T22:43:56;26.10;99.90
46335;DHT22;32051;48.882;9.210;2023-08-20T22:46:22;26.10;99.90
46335;DHT22;32051;48.882;9.210;2023-08-20T22:48:47;26.10;99.90
46335;DHT22;32051;48.882;9.210;2023-08-20T22:51:13;26.00;99.90
46335;DHT22;32051;48.882;9.210;2023-08-20T22:53:39;26.00;99.90
46335;DHT22;32051;48.882;9.210;2023-08-20T22:56:04;26.00;99.90
46335;DHT22;32051;48.882;9.210;2023-08-20T22:58:30;25.90;99.90
46335;DHT22;32051;48.882;9.210;2023-08-20T23:00:56;25.90;99.90
46335;DHT22;32051;48.882;9.210;2023-08-20T23:03:22;25.90;99.90
46335;DHT22;32051;48.882;9.210;2023-08-20T23:05:48;25.90;99.90
46335;DHT22;32051;48.882;9.210;2023-08-20T23:08:14;25.80;99.90
46335;DHT22;32051;48.882;9.210;2023-08-20T23:10:39;25.80;99.90
46335;DHT22;32051;48.882;9.210;2023-08-20T23:13:05;25.80;99.90
46335;DHT22;32051;48.882;9.210;2023-08-20T23:15:31;25.80;99.90
46335;DHT22;32051;48.882;9.210;2023-08-20T23:17:56;25.80;99.90
46335;DHT22;32051;48.882;9.210;2023-08-20T23:20:22;25.70;99.90
46335;DHT22;32051;48.882;9.210;2023-08-20T23:22:48;25.70;99.90
46335;DHT22;32051;48.882;9.210;2023-08-20T23:25:13;25.70;99.90
46335;DHT22;32051;48.882;9.210;2023-08-20T23:27:40;25.60;99.90
46335;DHT22;32051;48.882;9.210;2023-08-20T23:30:08;25.60;99.90
46335;DHT22;32051;48.882;9.210;2023-08-20T23:32:34;25.60;99.90
46335;DHT22;32051;48.882;9.210;2023-08-20T23:35:00;25.60;99.90
46335;DHT22;32051;48.882;9.210;2023-08-20T23:37:25;25.60;99.90
46335;DHT22;32051;48.882;9.210;2023-08-20T23:39:51;25.60;99.90
46335;DHT22;32051;48.882;9.210;2023-08-20T23:42:17;25.60;99.90
46335;DHT22;32051;48.882;9.210;2023-08-20T23:44:42;25.60;99.90
46335;DHT22;32051;48.882;9.210;2023-08-20T23:47:08;25.60;99.90
46335;DHT22;32051;48.882;9.210;2023-08-20T23:49:35;25.60;99.90
46335;DHT22;32051;48.882;9.210;2023-08-20T23:52:01;25.60;99.90
46335;DHT22;32051;48.882;9.210;2023-08-20T23:54:27;25.60;99.90
46335;DHT22;32051;48.882;9.210;2023-08-20T23:56:52;25.60;99.90
46335;DHT22;32051;48.882;9.210;2023-08-20T23:59:18;25.50;99.90
